Time;durP1;ratioP1;P1;durP2;ratioP2;P2;SDS_P1;SDS_P2;PMS_P1;PMS_P2;Temp;Humidity;BMP_temperature;BMP_pressure;BME280_temperature;BME280_humidity;BME280_pressure;Samples;Min_cycle;Max_cycle;Signal;HPM_P1;HPM_P2
2022/11/04 00:00:14;;;;;;;7.63;6.80;;;;;;;;;;5038309;28;20053;-73
2022/11/04 00:02:42;;;;;;;8.88;6.63;;;;;;;;;;5038443;28;20040;-73
2022/11/04 00:05:09;;;;;;;7.70;6.15;;;;;;;;;;5042426;28;20128;-73
2022/11/04 00:12:23;;;;;;;7.35;6.53;;;;;;;;;;5033845;28;20045;-73
2022/11/04 00:13:10;;;;;;;6.05;5.45;;;;;;;;;;5033542;28;20044;-73
2022/11/04 00:18:23;;;;;;;7.50;5.68;;;;;;;;;;5031189;28;20347;-73
2022/11/04 00:29:08;;;;;;;6.78;4.85;;;;;;;;;;5026472;28;20044;-73
2022/11/04 00:34:21;;;;;;;6.78;5.90;;;;;;;;;;5038983;28;20120;-73
2022/11/04 00:36:49;;;;;;;9.98;7.07;;;;;;;;;;5026700;28;20041;-73
2022/11/04 00:39:16;;;;;;;7.75;6.40;;;;;;;;;;5039833;28;20447;-73
2022/11/04 00:41:43;;;;;;;10.57;6.45;;;;;;;;;;5035775;28;20406;-73
2022/11/04 00:44:11;;;;;;;10.13;6.95;;;;;;;;;;5030662;28;20459;-73
2022/11/04 00:46:38;;;;;;;9.57;6.28;;;;;;;;;;5044286;28;20052;-73
2022/11/04 00:49:05;;;;;;;8.95;6.93;;;;;;;;;;5043796;28;20048;-73
2022/11/04 00:51:33;;;;;;;7.97;6.72;;;;;;;;;;5043793;28;20045;-73
2022/11/04 00:54:00;;;;;;;7.68;6.63;;;;;;;;;;5030263;28;20044;-73
2022/11/04 00:56:27;;;;;;;9.55;6.47;;;;;;;;;;4998519;28;20107;-73
2022/11/04 00:58:55;;;;;;;10.88;7.03;;;;;;;;;;5010196;28;20045;-73
2022/11/04 01:01:22;;;;;;;11.07;6.80;;;;;;;;;;5031406;28;20033;-73
2022/11/04 01:03:51;;;;;;;11.32;7.20;;;;;;;;;;5047793;28;20033;-74
2022/11/04 01:06:20;;;;;;;8.38;6.22;;;;;;;;;;5038295;28;20033;-73
2022/11/04 01:08:47;;;;;;;8.95;6.35;;;;;;;;;;5046702;28;20040;-73
2022/11/04 01:11:15;;;;;;;10.32;7.13;;;;;;;;;;5031085;28;20091;-73
2022/11/04 01:13:42;;;;;;;8.80;5.90;;;;;;;;;;5036102;28;20036;-73
2022/11/04 01:16:10;;;;;;;8.90;6.25;;;;;;;;;;5038808;28;20519;-73
2022/11/04 01:18:38;;;;;;;11.05;6.93;;;;;;;;;;5047426;28;20404;-74
2022/11/04 01:21:06;;;;;;;8.85;6.53;;;;;;;;;;5037374;28;20464;-73
2022/11/04 01:23:34;;;;;;;8.32;6.13;;;;;;;;;;5042185;28;20508;-73
2022/11/04 01:26:04;;;;;;;8.00;6.90;;;;;;;;;;5020922;22;20076;-83
2022/11/04 01:28:31;;;;;;;7.30;6.47;;;;;;;;;;4983212;28;20049;-83
2022/11/04 01:30:58;;;;;;;10.30;6.57;;;;;;;;;;4999156;28;20062;-85
2022/11/04 01:33:26;;;;;;;6.90;6.22;;;;;;;;;;4990190;28;20058;-84
2022/11/04 01:35:53;;;;;;;8.25;5.35;;;;;;;;;;5002270;28;20104;-84
2022/11/04 01:38:20;;;;;;;6.60;5.05;;;;;;;;;;4980001;28;20415;-83
2022/11/04 01:40:47;;;;;;;9.38;5.65;;;;;;;;;;5001402;28;20121;-83
2022/11/04 01:43:16;;;;;;;7.65;5.40;;;;;;;;;;5009939;28;20050;-83
2022/11/04 01:45:56;;;;;;;6.80;5.13;;;;;;;;;;5008789;28;20104;-83
2022/11/04 01:48:29;;;;;;;6.00;5.13;;;;;;;;;;5003768;28;20397;-83
2022/11/04 01:50:58;;;;;;;6.93;5.32;;;;;;;;;;4991265;28;20050;-83
2022/11/04 01:53:28;;;;;;;6.28;5.47;;;;;;;;;;5002547;28;20312;-83
2022/11/04 01:55:56;;;;;;;5.45;4.78;;;;;;;;;;5005759;28;20038;-82
2022/11/04 01:58:29;;;;;;;6.28;5.07;;;;;;;;;;4999764;28;20043;-83
2022/11/04 02:00:57;;;;;;;5.78;5.18;;;;;;;;;;4998133;28;20050;-82
2022/11/04 02:03:33;;;;;;;5.53;4.93;;;;;;;;;;4987988;28;20054;-82
2022/11/04 02:06:01;;;;;;;5.60;4.85;;;;;;;;;;4990924;28;20058;-83
2022/11/04 02:08:29;;;;;;;7.55;5.18;;;;;;;;;;5003366;28;20049;-83
2022/11/04 02:11:01;;;;;;;9.52;6.50;;;;;;;;;;4992422;28;20049;-84
2022/11/04 02:13:29;;;;;;;14.52;8.10;;;;;;;;;;5005743;28;20041;-83
2022/11/04 02:16:03;;;;;;;13.23;7.80;;;;;;;;;;5001947;28;20040;-83
2022/11/04 02:18:46;;;;;;;14.68;8.63;;;;;;;;;;5000405;28;20042;-83
2022/11/04 02:21:23;;;;;;;17.05;8.48;;;;;;;;;;5001672;28;20057;-83
2022/11/04 02:23:59;;;;;;;12.63;7.82;;;;;;;;;;5001120;28;20048;-84
2022/11/04 02:26:41;;;;;;;11.30;8.02;;;;;;;;;;4981596;28;20069;-84
2022/11/04 02:29:31;;;;;;;8.52;6.28;;;;;;;;;;4976832;28;20042;-83
2022/11/04 02:32:24;;;;;;;8.85;5.60;;;;;;;;;;4998234;28;20038;-83
2022/11/04 02:34:51;;;;;;;;;;;;;;;;;;5003248;28;20038;-84
2022/11/04 02:37:37;;;;;;;9.48;5.57;;;;;;;;;;4989479;28;19925;-83
2022/11/04 02:40:19;;;;;;;7.60;6.28;;;;;;;;;;5001008;28;20141;-83
2022/11/04 02:42:46;;;;;;;6.03;5.43;;;;;;;;;;5005379;28;20073;-83
2022/11/04 02:45:17;;;;;;;6.15;5.55;;;;;;;;;;4990479;28;20068;-83
2022/11/04 02:47:45;;;;;;;8.55;6.80;;;;;;;;;;4991488;28;20041;-84
2022/11/04 02:50:25;;;;;;;6.25;5.65;;;;;;;;;;4991403;28;20050;-84
2022/11/04 02:52:56;;;;;;;8.45;6.60;;;;;;;;;;4972867;28;20073;-83
2022/11/04 02:55:26;;;;;;;6.65;5.95;;;;;;;;;;4977922;28;20423;-83
2022/11/04 02:57:54;;;;;;;5.95;5.05;;;;;;;;;;4988529;28;20048;-83
2022/11/04 03:00:22;;;;;;;6.93;6.13;;;;;;;;;;4986670;28;20052;-83
2022/11/04 03:03:06;;;;;;;7.15;6.55;;;;;;;;;;4996012;28;20137;-84
2022/11/04 03:05:36;;;;;;;6.07;5.47;;;;;;;;;;5000815;28;20519;-84
2022/11/04 03:08:05;;;;;;;6.20;5.60;;;;;;;;;;5003818;28;20471;-83
2022/11/04 03:10:35;;;;;;;5.80;5.10;;;;;;;;;;5005554;28;20038;-83
2022/11/04 03:13:09;;;;;;;9.05;5.97;;;;;;;;;;4994300;28;20045;-82
2022/11/04 03:15:38;;;;;;;6.45;5.32;;;;;;;;;;5002516;28;20088;-82
2022/11/04 03:18:22;;;;;;;6.88;5.30;;;;;;;;;;4986822;28;20056;-82
2022/11/04 03:20:50;;;;;;;6.85;5.90;;;;;;;;;;4992857;28;20042;-82
2022/11/04 03:23:18;;;;;;;5.95;4.80;;;;;;;;;;5007088;28;20114;-82
2022/11/04 03:25:46;;;;;;;9.48;5.70;;;;;;;;;;5007691;28;20125;-82
2022/11/04 03:28:19;;;;;;;6.38;5.82;;;;;;;;;;5001799;28;20418;-82
2022/11/04 03:30:48;;;;;;;6.15;5.57;;;;;;;;;;4981642;28;20058;-82
2022/11/04 03:33:18;;;;;;;5.82;5.32;;;;;;;;;;4988394;28;20046;-82
2022/11/04 03:35:46;;;;;;;9.38;5.50;;;;;;;;;;4996705;28;20655;-82
2022/11/04 03:38:13;;;;;;;6.85;5.18;;;;;;;;;;5000915;28;20100;-81
2022/11/04 03:40:40;;;;;;;5.75;4.97;;;;;;;;;;5007037;28;20050;-83
2022/11/04 03:43:13;;;;;;;5.85;5.25;;;;;;;;;;5002078;28;20038;-83
2022/11/04 03:45:41;;;;;;;5.90;5.32;;;;;;;;;;5010490;28;20041;-83
2022/11/04 03:48:09;;;;;;;5.72;5.20;;;;;;;;;;5003901;28;21152;-84
2022/11/04 03:50:43;;;;;;;7.13;5.78;;;;;;;;;;5002492;28;20045;-84
2022/11/04 03:53:15;;;;;;;5.72;5.00;;;;;;;;;;5013161;28;20148;-85
2022/11/04 03:55:57;;;;;;;7.75;6.53;;;;;;;;;;5006643;28;20046;-85
2022/11/04 03:58:38;;;;;;;6.03;5.32;;;;;;;;;;4999907;28;20038;-86
2022/11/04 04:01:20;;;;;;;8.83;6.10;;;;;;;;;;4995562;28;20037;-85
2022/11/04 04:03:51;;;;;;;5.65;5.15;;;;;;;;;;4992603;28;21757;-85
2022/11/04 04:06:21;;;;;;;6.72;5.10;;;;;;;;;;4991915;28;20593;-85
2022/11/04 04:08:52;;;;;;;6.05;5.53;;;;;;;;;;4995167;28;20053;-86
2022/11/04 04:11:22;;;;;;;9.07;6.20;;;;;;;;;;4974847;28;20101;-85
2022/11/04 04:13:53;;;;;;;13.85;6.88;;;;;;;;;;4983160;28;20561;-83
2022/11/04 04:16:26;;;;;;;8.25;5.70;;;;;;;;;;5001300;28;20042;-83
2022/11/04 04:18:56;;;;;;;7.63;6.30;;;;;;;;;;4982075;28;20054;-84
2022/11/04 04:21:31;;;;;;;8.07;6.50;;;;;;;;;;4999816;28;20887;-86
2022/11/04 04:29:32;;;;;;;6.00;5.50;;;;;;;;;;5001652;28;20042;-84
2022/11/04 04:32:00;;;;;;;8.60;5.15;;;;;;;;;;5007946;28;20134;-83
2022/11/04 04:34:28;;;;;;;6.78;4.65;;;;;;;;;;4997540;28;20042;-83
2022/11/04 04:37:17;;;;;;;8.48;4.57;;;;;;;;;;5001193;28;20373;-84
2022/11/04 04:45:33;;;;;;;7.18;5.47;;;;;;;;;;5003753;28;20038;-84
2022/11/04 04:48:00;;;;;;;5.65;5.10;;;;;;;;;;5004393;28;20438;-84
2022/11/04 04:50:39;;;;;;;5.30;4.80;;;;;;;;;;5009947;28;20566;-81
2022/11/04 04:53:06;;;;;;;7.60;4.40;;;;;;;;;;5027673;28;20026;-82
2022/11/04 04:55:34;;;;;;;5.95;4.38;;;;;;;;;;5032223;28;20038;-81
2022/11/04 04:58:08;;;;;;;5.07;4.53;;;;;;;;;;5024108;28;20109;-82
2022/11/04 05:00:35;;;;;;;5.13;4.40;;;;;;;;;;5022764;28;20104;-83
2022/11/04 05:03:03;;;;;;;6.50;4.80;;;;;;;;;;5005234;28;20043;-82
2022/11/04 05:05:30;;;;;;;5.30;4.47;;;;;;;;;;5011075;28;20045;-83
2022/11/04 05:08:04;;;;;;;5.03;4.50;;;;;;;;;;5004004;28;20050;-84
2022/11/04 05:10:31;;;;;;;5.43;4.82;;;;;;;;;;4999162;28;20050;-83
2022/11/04 05:15:45;;;;;;;8.73;4.47;;;;;;;;;;5004953;28;20034;-84
2022/11/04 05:18:12;;;;;;;8.20;4.90;;;;;;;;;;5000189;28;20070;-83
2022/11/04 05:20:40;;;;;;;6.47;4.43;;;;;;;;;;4999967;28;20453;-84
2022/11/04 05:23:10;;;;;;;5.22;4.72;;;;;;;;;;5000284;28;20052;-84
2022/11/04 05:25:38;;;;;;;9.10;5.00;;;;;;;;;;5003166;28;20050;-84
2022/11/04 05:28:06;;;;;;;9.50;5.50;;;;;;;;;;4999792;28;20050;-83
2022/11/04 05:30:34;;;;;;;6.65;5.15;;;;;;;;;;5000883;28;21682;-84
2022/11/04 05:33:01;;;;;;;7.75;4.88;;;;;;;;;;5005490;28;20281;-84
2022/11/04 05:35:32;;;;;;;5.88;5.10;;;;;;;;;;5005516;28;20141;-83
2022/11/04 05:37:59;;;;;;;9.52;5.18;;;;;;;;;;4999915;28;20459;-84
2022/11/04 05:40:26;;;;;;;8.88;5.70;;;;;;;;;;5005256;28;20046;-84
2022/11/04 05:42:53;;;;;;;7.07;5.28;;;;;;;;;;5000766;28;20595;-84
2022/11/04 05:45:21;;;;;;;9.05;6.20;;;;;;;;;;4992187;28;20535;-84
2022/11/04 05:47:48;;;;;;;7.35;6.57;;;;;;;;;;5003616;28;20073;-84
2022/11/04 05:50:15;;;;;;;8.65;6.25;;;;;;;;;;4984058;28;20483;-84
2022/11/04 05:52:42;;;;;;;8.77;6.30;;;;;;;;;;4983203;28;20121;-83
2022/11/04 05:55:09;;;;;;;7.28;5.38;;;;;;;;;;5002332;28;20097;-84
2022/11/04 05:57:37;;;;;;;9.20;6.75;;;;;;;;;;5002665;28;20038;-83
2022/11/04 06:00:05;;;;;;;10.35;8.00;;;;;;;;;;5002393;28;20476;-84
2022/11/04 06:02:32;;;;;;;6.80;6.13;;;;;;;;;;4998717;28;20225;-84
2022/11/04 06:04:59;;;;;;;9.27;6.88;;;;;;;;;;4991186;28;20037;-84
2022/11/04 06:07:26;;;;;;;9.93;6.25;;;;;;;;;;4989804;28;20418;-84
2022/11/04 06:09:54;;;;;;;8.07;6.03;;;;;;;;;;4992167;28;20443;-84
2022/11/04 06:12:21;;;;;;;12.05;9.35;;;;;;;;;;5008494;28;20123;-84
2022/11/04 06:14:48;;;;;;;19.15;13.23;;;;;;;;;;5008001;28;20443;-84
2022/11/04 06:17:16;;;;;;;18.23;15.52;;;;;;;;;;5000225;28;20042;-84
2022/11/04 06:19:44;;;;;;;9.73;8.18;;;;;;;;;;5002130;28;20050;-83
2022/11/04 06:22:12;;;;;;;10.45;7.72;;;;;;;;;;4998899;28;20049;-83
2022/11/04 06:24:39;;;;;;;10.38;8.25;;;;;;;;;;4997279;28;20051;-84
2022/11/04 06:27:06;;;;;;;12.98;7.95;;;;;;;;;;5003987;28;20085;-84
2022/11/04 06:29:35;;;;;;;9.90;6.93;;;;;;;;;;4998533;28;20046;-84
2022/11/04 06:32:02;;;;;;;9.77;6.93;;;;;;;;;;4996796;28;20089;-84
2022/11/04 06:34:29;;;;;;;9.52;6.50;;;;;;;;;;4997537;28;20042;-84
2022/11/04 06:36:57;;;;;;;10.45;6.45;;;;;;;;;;4998852;28;20133;-84
2022/11/04 06:39:24;;;;;;;10.25;6.15;;;;;;;;;;5001806;28;20595;-83
2022/11/04 06:41:51;;;;;;;12.70;6.25;;;;;;;;;;4986632;28;20507;-83
2022/11/04 06:44:23;;;;;;;7.43;5.75;;;;;;;;;;4998594;28;20124;-82
2022/11/04 06:46:50;;;;;;;7.45;5.15;;;;;;;;;;4988477;28;20045;-84
2022/11/04 06:49:24;;;;;;;6.03;5.25;;;;;;;;;;4987035;28;20060;-83
2022/11/04 06:51:52;;;;;;;6.90;5.68;;;;;;;;;;4998162;28;20042;-84
2022/11/04 06:54:19;;;;;;;10.20;5.43;;;;;;;;;;5001532;28;20103;-83
2022/11/04 06:56:47;;;;;;;6.72;4.38;;;;;;;;;;4996619;28;20042;-83
2022/11/04 06:59:16;;;;;;;7.07;4.80;;;;;;;;;;4982467;28;20054;-83
2022/11/04 07:01:44;;;;;;;5.75;4.30;;;;;;;;;;4998332;28;20097;-84
2022/11/04 07:04:14;;;;;;;4.45;4.05;;;;;;;;;;5004427;28;20058;-82
2022/11/04 07:06:42;;;;;;;7.72;4.18;;;;;;;;;;5004749;28;20164;-83
2022/11/04 07:09:13;;;;;;;3.78;3.38;;;;;;;;;;5002637;28;20065;-83
2022/11/04 07:11:41;;;;;;;5.00;3.65;;;;;;;;;;4985681;28;20073;-83
2022/11/04 07:14:08;;;;;;;7.53;3.70;;;;;;;;;;5004643;28;20496;-83
2022/11/04 07:16:36;;;;;;;4.10;3.40;;;;;;;;;;4992329;28;20368;-84
2022/11/04 07:19:03;;;;;;;9.38;4.22;;;;;;;;;;4991971;28;20101;-87
2022/11/04 07:21:31;;;;;;;4.22;3.38;;;;;;;;;;5006629;28;20541;-86
2022/11/04 07:23:58;;;;;;;8.18;4.22;;;;;;;;;;5007367;28;20447;-85
2022/11/04 07:26:25;;;;;;;13.38;4.70;;;;;;;;;;5006553;28;20213;-87
2022/11/04 07:28:53;;;;;;;8.85;4.60;;;;;;;;;;4989105;28;20058;-87
2022/11/04 07:31:29;;;;;;;5.55;3.80;;;;;;;;;;5006834;28;20049;-87
2022/11/04 07:33:57;;;;;;;3.60;3.17;;;;;;;;;;5005216;28;20041;-86
2022/11/04 07:36:24;;;;;;;4.95;3.38;;;;;;;;;;5010778;28;20048;-86
2022/11/04 07:38:51;;;;;;;6.05;3.47;;;;;;;;;;5008768;28;20042;-86
2022/11/04 07:41:19;;;;;;;3.10;2.75;;;;;;;;;;5005276;28;20073;-85
2022/11/04 07:43:50;;;;;;;2.63;2.25;;;;;;;;;;5009851;28;20045;-85
2022/11/04 07:46:18;;;;;;;2.05;1.80;;;;;;;;;;5005280;28;20042;-87
2022/11/04 07:48:45;;;;;;;2.80;1.80;;;;;;;;;;5007028;28;20556;-86
2022/11/04 07:51:16;;;;;;;2.03;1.92;;;;;;;;;;5007994;28;20532;-87
2022/11/04 07:53:43;;;;;;;1.95;1.85;;;;;;;;;;4972277;28;20049;-86
2022/11/04 07:56:11;;;;;;;2.10;1.77;;;;;;;;;;4989926;28;20038;-86
2022/11/04 07:58:39;;;;;;;2.33;2.13;;;;;;;;;;4998559;28;20046;-87
2022/11/04 08:01:11;;;;;;;2.83;2.25;;;;;;;;;;5002810;28;20057;-87
2022/11/04 08:03:38;;;;;;;3.05;2.47;;;;;;;;;;5005193;28;20042;-87
2022/11/04 08:06:06;;;;;;;7.68;2.40;;;;;;;;;;5000747;28;20042;-86
2022/11/04 08:08:34;;;;;;;2.28;2.08;;;;;;;;;;5006702;28;20127;-87
2022/11/04 08:11:05;;;;;;;2.75;2.22;;;;;;;;;;5010195;28;20042;-86
2022/11/04 08:13:34;;;;;;;2.85;2.22;;;;;;;;;;5011993;28;20589;-87
2022/11/04 08:16:02;;;;;;;2.92;2.63;;;;;;;;;;5010722;28;20117;-88
2022/11/04 08:18:30;;;;;;;5.50;2.85;;;;;;;;;;4992556;28;20046;-87
2022/11/04 08:20:58;;;;;;;1.98;1.83;;;;;;;;;;4993775;28;20053;-87
2022/11/04 08:23:25;;;;;;;2.88;1.90;;;;;;;;;;4993701;28;20053;-87
2022/11/04 08:25:52;;;;;;;3.83;1.67;;;;;;;;;;4977264;28;20108;-87
2022/11/04 08:28:20;;;;;;;4.30;2.60;;;;;;;;;;4990905;28;20430;-86
2022/11/04 08:30:58;;;;;;;4.15;2.10;;;;;;;;;;5010069;28;20040;-86
2022/11/04 08:33:27;;;;;;;4.95;2.90;;;;;;;;;;5006889;28;20475;-86
2022/11/04 08:35:55;;;;;;;4.28;2.22;;;;;;;;;;5014823;28;20042;-87
2022/11/04 08:38:22;;;;;;;3.25;2.45;;;;;;;;;;5006795;28;20072;-87
2022/11/04 08:40:49;;;;;;;4.22;2.38;;;;;;;;;;5005189;28;20072;-88
2022/11/04 08:43:24;;;;;;;3.40;2.30;;;;;;;;;;4988007;28;20054;-87
2022/11/04 08:45:52;;;;;;;3.95;2.83;;;;;;;;;;4989817;28;20069;-89
2022/11/04 08:48:19;;;;;;;3.33;2.90;;;;;;;;;;5003775;28;20474;-87
2022/11/04 08:50:50;;;;;;;5.50;1.92;;;;;;;;;;5002538;28;20096;-87
2022/11/04 08:53:18;;;;;;;2.10;1.90;;;;;;;;;;5007119;28;20128;-88
2022/11/04 08:55:45;;;;;;;2.20;2.00;;;;;;;;;;4993313;28;20052;-88
2022/11/04 08:58:13;;;;;;;2.83;2.08;;;;;;;;;;4984468;28;20585;-88
2022/11/04 09:00:41;;;;;;;1.40;1.30;;;;;;;;;;4987037;28;20128;-86
2022/11/04 09:03:08;;;;;;;2.25;1.67;;;;;;;;;;4985260;28;20045;-88
2022/11/04 09:05:43;;;;;;;1.83;1.73;;;;;;;;;;4987731;28;20046;-87
2022/11/04 09:08:11;;;;;;;3.92;1.60;;;;;;;;;;4984447;28;20046;-87
2022/11/04 09:10:42;;;;;;;1.30;1.30;;;;;;;;;;5002639;28;20107;-87
2022/11/04 09:13:10;;;;;;;2.30;1.23;;;;;;;;;;5010228;28;20538;-86
2022/11/04 09:15:38;;;;;;;1.75;1.60;;;;;;;;;;4999016;28;20045;-87
2022/11/04 09:18:05;;;;;;;1.77;1.67;;;;;;;;;;5004471;28;20531;-87
2022/11/04 09:20:33;;;;;;;1.73;1.63;;;;;;;;;;5009602;28;20069;-87
2022/11/04 09:23:00;;;;;;;5.63;1.95;;;;;;;;;;4998554;28;20042;-87
2022/11/04 09:25:27;;;;;;;2.03;1.80;;;;;;;;;;4992160;28;20042;-88
2022/11/04 09:27:55;;;;;;;3.25;2.50;;;;;;;;;;4979044;28;20038;-87
2022/11/04 09:30:22;;;;;;;4.35;2.67;;;;;;;;;;5007904;28;20125;-87
2022/11/04 09:32:49;;;;;;;2.50;2.30;;;;;;;;;;4999974;28;20046;-87
2022/11/04 09:35:19;;;;;;;3.38;2.42;;;;;;;;;;5004939;28;20042;-87
2022/11/04 09:37:46;;;;;;;2.58;2.35;;;;;;;;;;5004613;28;20077;-87
2022/11/04 09:40:15;;;;;;;4.72;3.33;;;;;;;;;;5012000;28;20046;-87
2022/11/04 09:42:58;;;;;;;3.65;2.53;;;;;;;;;;4997736;28;20125;-88
2022/11/04 09:45:29;;;;;;;3.72;2.47;;;;;;;;;;5001206;28;20038;-87
2022/11/04 09:48:00;;;;;;;5.13;2.27;;;;;;;;;;4994462;28;20270;-87
2022/11/04 09:50:30;;;;;;;3.05;2.05;;;;;;;;;;4993026;28;20097;-87
2022/11/04 09:53:16;;;;;;;2.10;1.90;;;;;;;;;;4984797;28;20103;-87
2022/11/04 09:55:59;;;;;;;7.53;2.08;;;;;;;;;;4997257;28;20049;-87
2022/11/04 09:58:28;;;;;;;2.95;2.25;;;;;;;;;;5008116;28;20045;-87
2022/11/04 10:01:18;;;;;;;2.25;1.95;;;;;;;;;;4989098;28;20519;-88
2022/11/04 10:03:52;;;;;;;4.28;2.97;;;;;;;;;;5005013;28;20120;-88
2022/11/04 10:06:19;;;;;;;4.72;2.70;;;;;;;;;;5007745;28;20407;-88
2022/11/04 10:09:02;;;;;;;3.25;2.40;;;;;;;;;;5007769;28;20045;-88
2022/11/04 10:11:33;;;;;;;4.00;3.03;;;;;;;;;;4999761;28;20053;-88
2022/11/04 10:14:14;;;;;;;5.40;2.78;;;;;;;;;;4998753;28;20049;-88
2022/11/04 10:16:42;;;;;;;3.65;2.47;;;;;;;;;;4998479;28;20042;-87
2022/11/04 10:19:36;;;;;;;5.25;2.88;;;;;;;;;;4985509;28;20054;-87
2022/11/04 10:22:03;;;;;;;4.88;2.30;;;;;;;;;;4976543;28;20066;-86
2022/11/04 10:24:37;;;;;;;2.13;1.92;;;;;;;;;;4998280;28;20550;-86
2022/11/04 10:27:09;;;;;;;2.88;1.90;;;;;;;;;;4999580;28;20077;-86
2022/11/04 10:29:36;;;;;;;;;;;;;;;;;;4986719;28;20038;-86
2022/11/04 10:32:10;;;;;;;2.75;2.50;;;;;;;;;;4979899;28;20438;-85
2022/11/04 10:34:41;;;;;;;3.33;2.08;;;;;;;;;;4998198;28;20053;-86
2022/11/04 10:37:10;;;;;;;2.87;2.30;;;;;;;;;;4998771;28;20046;-86
2022/11/04 10:39:42;;;;;;;1.75;1.65;;;;;;;;;;5007386;28;20056;-86
2022/11/04 10:42:14;;;;;;;5.07;1.52;;;;;;;;;;5004806;28;20044;-85
2022/11/04 10:44:41;;;;;;;;;;;;;;;;;;5003179;28;20030;-86
2022/11/04 10:47:08;;;;;;;2.17;1.95;;;;;;;;;;4998137;28;19983;-85
2022/11/04 10:49:38;;;;;;;2.83;1.90;;;;;;;;;;5002371;28;20045;-85
2022/11/04 10:52:08;;;;;;;3.73;1.90;;;;;;;;;;4999884;28;20444;-87
2022/11/04 10:54:46;;;;;;;2.33;2.13;;;;;;;;;;5001094;28;20293;-87
2022/11/04 10:57:23;;;;;;;2.58;1.70;;;;;;;;;;4992632;28;20046;-88
2022/11/04 10:59:55;;;;;;;2.65;2.30;;;;;;;;;;4998192;28;20046;-89
2022/11/04 11:02:42;;;;;;;2.55;2.10;;;;;;;;;;5002931;28;20070;-89
2022/11/04 11:05:21;;;;;;;3.67;2.42;;;;;;;;;;4982115;28;20049;-90
2022/11/04 11:08:00;;;;;;;4.50;2.30;;;;;;;;;;4986670;28;20427;-90
2022/11/04 11:10:32;;;;;;;5.07;2.63;;;;;;;;;;4995874;28;20042;-89
2022/11/04 11:13:06;;;;;;;;;;;;;;;;;;4991562;28;20245;-89
2022/11/04 11:15:35;;;;;;;3.83;2.17;;;;;;;;;;4966083;28;19944;-89
2022/11/04 11:18:06;;;;;;;5.63;3.30;;;;;;;;;;4987963;28;20045;-88
2022/11/04 11:20:36;;;;;;;5.85;3.58;;;;;;;;;;4991702;28;20419;-88
2022/11/04 11:23:08;;;;;;;7.13;3.63;;;;;;;;;;4985164;28;20050;-88
2022/11/04 11:25:41;;;;;;;3.65;2.75;;;;;;;;;;5007257;28;20034;-88
2022/11/04 11:28:09;;;;;;;3.47;2.95;;;;;;;;;;5004486;28;20038;-89
2022/11/04 11:30:57;;;;;;;3.00;2.65;;;;;;;;;;5006006;28;20719;-88
2022/11/04 11:33:26;;;;;;;4.35;3.55;;;;;;;;;;5004048;28;20060;-89
2022/11/04 11:36:03;;;;;;;3.35;1.75;;;;;;;;;;4977614;28;20118;-89
2022/11/04 11:38:31;;;;;;;4.47;2.40;;;;;;;;;;4982000;28;20064;-89
2022/11/04 11:41:17;;;;;;;5.45;2.38;;;;;;;;;;5002276;28;20050;-88
2022/11/04 11:43:51;;;;;;;;;;;;;;;;;;4986002;28;20916;-88
2022/11/04 11:46:23;;;;;;;2.75;2.50;;;;;;;;;;5005896;28;19964;-89
2022/11/04 11:48:51;;;;;;;3.00;2.50;;;;;;;;;;4984271;28;20137;-89
2022/11/04 11:51:27;;;;;;;2.42;2.15;;;;;;;;;;5003430;28;20056;-89
2022/11/04 11:54:22;;;;;;;4.53;2.65;;;;;;;;;;4998520;28;20043;-89
2022/11/04 11:56:54;;;;;;;3.83;2.95;;;;;;;;;;4985866;28;20049;-88
2022/11/04 11:59:47;;;;;;;3.80;2.53;;;;;;;;;;4986075;28;20114;-89
2022/11/04 12:02:43;;;;;;;3.05;2.33;;;;;;;;;;4971699;28;20092;-89
2022/11/04 12:05:18;;;;;;;4.38;2.42;;;;;;;;;;5008846;28;20049;-90
2022/11/04 12:08:16;;;;;;;2.65;2.00;;;;;;;;;;4995534;28;20040;-89
2022/11/04 12:11:14;;;;;;;2.50;2.30;;;;;;;;;;4990357;28;20765;-91
2022/11/04 12:14:01;;;;;;;2.15;1.95;;;;;;;;;;4991278;28;20049;-91
2022/11/04 12:19:44;;;;;;;2.83;2.63;;;;;;;;;;5002408;28;20073;-90
2022/11/04 12:22:25;;;;;;;4.10;2.30;;;;;;;;;;4988458;28;20038;-90
2022/11/04 12:25:07;;;;;;;2.55;1.90;;;;;;;;;;4983899;28;20137;-88
2022/11/04 12:27:42;;;;;;;3.25;2.47;;;;;;;;;;4987760;28;20046;-89
2022/11/04 12:30:09;;;;;;;5.03;3.05;;;;;;;;;;5001494;28;20093;-89
2022/11/04 12:32:49;;;;;;;3.97;2.50;;;;;;;;;;4994418;28;20057;-89
2022/11/04 12:35:27;;;;;;;2.33;2.15;;;;;;;;;;4999682;28;20108;-88
2022/11/04 12:37:55;;;;;;;3.13;2.83;;;;;;;;;;5012584;28;20128;-88
2022/11/04 12:40:49;;;;;;;3.47;2.67;;;;;;;;;;5008058;28;20407;-89
2022/11/04 12:44:03;;;;;;;4.68;3.13;;;;;;;;;;4938420;28;20083;-89
2022/11/04 12:46:35;;;;;;;4.45;3.08;;;;;;;;;;4982700;28;20440;-89
2022/11/04 12:49:23;;;;;;;6.00;3.63;;;;;;;;;;4995624;28;20117;-89
2022/11/04 12:51:51;;;;;;;5.10;2.95;;;;;;;;;;5001017;28;20089;-89
2022/11/04 12:54:58;;;;;;;;;;;;;;;;;;;;;
2022/11/04 12:58:20;;;;;;;15.35;3.78;;;;;;;;;;4993392;28;20066;-89
2022/11/04 13:05:59;;;;;;;3.58;2.85;;;;;;;;;;4999976;28;20092;-89
2022/11/04 13:09:55;;;;;;;3.05;2.85;;;;;;;;;;4870448;29;20061;-88
2022/11/04 13:17:16;;;;;;;4.43;3.10;;;;;;;;;;4970886;28;20054;-88
2022/11/04 13:20:38;;;;;;;6.93;3.95;;;;;;;;;;4996836;28;20065;-87
2022/11/04 13:23:57;;;;;;;4.05;3.65;;;;;;;;;;4993202;28;20034;-87
2022/11/04 13:26:39;;;;;;;8.15;4.25;;;;;;;;;;4968433;28;20069;-88
2022/11/04 13:29:20;;;;;;;4.18;3.60;;;;;;;;;;4994328;28;20051;-86
2022/11/04 13:31:54;;;;;;;4.63;3.97;;;;;;;;;;4987516;28;20053;-86
2022/11/04 13:34:50;;;;;;;6.15;3.20;;;;;;;;;;5004960;28;20057;-86
2022/11/04 13:37:24;;;;;;;6.10;4.10;;;;;;;;;;4925841;28;20044;-85
2022/11/04 13:40:05;;;;;;;8.35;3.22;;;;;;;;;;5011748;28;20057;-85
2022/11/04 13:42:51;;;;;;;4.88;2.72;;;;;;;;;;5009036;28;20403;-86
2022/11/04 13:45:19;;;;;;;3.25;2.90;;;;;;;;;;5010673;28;20462;-86
2022/11/04 13:47:49;;;;;;;5.47;2.75;;;;;;;;;;4999812;28;20046;-85
2022/11/04 13:50:35;;;;;;;7.32;3.30;;;;;;;;;;5009024;28;20057;-85
2022/11/04 13:53:07;;;;;;;9.23;3.80;;;;;;;;;;5007656;28;20473;-85
2022/11/04 13:55:48;;;;;;;5.28;2.63;;;;;;;;;;4988462;28;20052;-85
2022/11/04 13:58:25;;;;;;;5.90;2.97;;;;;;;;;;4984705;28;20215;-85
2022/11/04 14:01:12;;;;;;;9.43;5.10;;;;;;;;;;4980882;28;20515;-85
2022/11/04 14:03:51;;;;;;;6.47;4.45;;;;;;;;;;4988181;28;20625;-85
2022/11/04 14:06:39;;;;;;;4.90;3.33;;;;;;;;;;5008458;28;20040;-85
2022/11/04 14:09:25;;;;;;;8.02;4.20;;;;;;;;;;4990936;28;20038;-85
2022/11/04 14:12:16;;;;;;;7.80;5.38;;;;;;;;;;4999312;28;20042;-86
2022/11/04 14:15:06;;;;;;;8.52;5.78;;;;;;;;;;4979306;28;20057;-87
2022/11/04 14:17:37;;;;;;;14.02;5.88;;;;;;;;;;4985079;28;20123;-86
2022/11/04 14:20:04;;;;;;;6.65;5.13;;;;;;;;;;4974280;28;20132;-87
2022/11/04 14:22:49;;;;;;;2.80;2.60;;;;;;;;;;4985318;28;20046;-87
2022/11/04 14:25:28;;;;;;;4.82;3.53;;;;;;;;;;4968765;28;20566;-87
2022/11/04 14:28:08;;;;;;;;;;;;;;;;;;;;;
2022/11/04 14:43:53;;;;;;;7.05;5.05;;;;;;;;;;4818606;29;20065;-89
2022/11/04 14:46:48;;;;;;;7.82;4.00;;;;;;;;;;4855452;29;20060;-90
2022/11/04 14:51:08;;;;;;;;;;;;;;;;;;;;;
2022/11/04 14:54:38;;;;;;;6.40;3.58;;;;;;;;;;4918943;29;20086;-89
2022/11/04 14:57:36;;;;;;;6.50;3.65;;;;;;;;;;4916231;29;20223;-87
2022/11/04 15:00:27;;;;;;;11.57;4.15;;;;;;;;;;4908318;29;20059;-86
2022/11/04 15:03:11;;;;;;;3.67;3.33;;;;;;;;;;4906194;29;20080;-86
2022/11/04 15:06:04;;;;;;;4.75;2.60;;;;;;;;;;4921886;29;20044;-85
2022/11/04 15:08:42;;;;;;;3.85;3.45;;;;;;;;;;4915418;29;20498;-86
2022/11/04 15:11:09;;;;;;;4.53;3.22;;;;;;;;;;4999652;28;20050;-86
2022/11/04 15:13:45;;;;;;;7.35;4.43;;;;;;;;;;4987063;28;20145;-86
2022/11/04 15:16:41;;;;;;;7.60;5.47;;;;;;;;;;4967517;28;20700;-87
2022/11/04 15:20:51;;;;;;;10.70;4.72;;;;;;;;;;4971349;28;20050;-88
2022/11/04 15:23:49;;;;;;;6.32;4.63;;;;;;;;;;4915668;29;20118;-86
2022/11/04 15:26:21;;;;;;;8.05;4.63;;;;;;;;;;4907504;29;20056;-86
2022/11/04 15:28:56;;;;;;;6.32;3.80;;;;;;;;;;4924794;29;20060;-86
2022/11/04 15:31:25;;;;;;;8.20;4.60;;;;;;;;;;4912936;29;20226;-86
2022/11/04 15:33:57;;;;;;;6.60;5.07;;;;;;;;;;4934133;29;20518;-86
2022/11/04 15:36:46;;;;;;;10.00;7.80;;;;;;;;;;4926698;29;20093;-86
2022/11/04 15:39:15;;;;;;;11.00;4.43;;;;;;;;;;4908832;29;20617;-85
2022/11/04 15:44:30;;;;;;;3.45;3.15;;;;;;;;;;4908794;29;20058;-86
2022/11/04 15:47:00;;;;;;;6.82;3.47;;;;;;;;;;4909084;29;20095;-85
2022/11/04 15:49:29;;;;;;;4.57;4.18;;;;;;;;;;4922960;29;20123;-86
2022/11/04 15:52:05;;;;;;;7.15;4.45;;;;;;;;;;4906465;29;20052;-87
2022/11/04 15:54:38;;;;;;;6.40;4.65;;;;;;;;;;4894953;29;20055;-87
2022/11/04 15:57:24;;;;;;;3.42;3.13;;;;;;;;;;4924124;28;20064;-88
2022/11/04 16:00:14;;;;;;;5.70;4.18;;;;;;;;;;5004273;28;20073;-87
2022/11/04 16:03:13;;;;;;;4.20;3.83;;;;;;;;;;4979823;28;20118;-86
2022/11/04 16:06:29;;;;;;;4.38;2.63;;;;;;;;;;4999477;28;20077;-92
2022/11/04 16:23:46;;;;;;;6.57;3.65;;;;;;;;;;5063272;22;20060;-80
2022/11/04 16:26:13;;;;;;;6.50;3.42;;;;;;;;;;5077962;28;20040;-80
2022/11/04 16:28:41;;;;;;;7.10;3.95;;;;;;;;;;5086968;28;20484;-80
2022/11/04 16:31:23;;;;;;;5.53;3.80;;;;;;;;;;5093648;28;20113;-81
2022/11/04 16:33:54;;;;;;;5.88;4.55;;;;;;;;;;5092654;28;20054;-80
2022/11/04 16:36:24;;;;;;;3.45;3.08;;;;;;;;;;5059115;28;20521;-79
2022/11/04 16:39:02;;;;;;;8.07;4.35;;;;;;;;;;5059222;28;20138;-79
2022/11/04 16:41:32;;;;;;;8.57;5.63;;;;;;;;;;5093425;28;20044;-79